sim
Sign-in with your pilot id or email,
or register
Callsign
Passwort

Schedule Details

Flight Number: DLH1945 (1)
Departure: Genoa Cristoforo Colombo Airport (LIMJ) at 15:50
Arrival: Munich Airport (EDDM) at 17:05
Route: Lufthansa Passenger Schedule. Enter filed route here before submitting Pirep.

Weather Information
Getting current METAR information for LIMJ 231450Z 14006KT 9999 FEW025TCU SCT028 22/17 Q1009
Getting current METAR information for EDDM 231450Z 24007KT 9999 FEW043 19/15 Q1009 NOSIG

Schedule Frequency

Route Map